Airfield :
LOGIN :

Register | Disclaimer

   EN    FR    IT 

 










Legend :    VFR   Marginal VFR   IFR   Intensive IFR   Very Intensive IFR
Visi :
Ceiling :
>= 8 km
>= 3000ft
5 to 8 km
1000 to 3000 ft
1500m to 5 km
500 to 1000 ft
800 to 1500m
200 to 500 ft
< 800m
< 200 ft
Symbols :   Thunderstorms  Fog  Heavy snow  Heavy precipitations  Wind > 20 kt
SIGMETs :     Misc.  Thunderstorms  Icing  Turbulence  Mountain Waves  Volcanic Ashes






- Airport Elevation : 194 ft
- IATA code : ANE


LFJR - Angers Marcé

CURRENT METAR :
  • 280530Z AUTO 00000KT 8000 FEW018 OVC064 M00/M00 Q1024

EXPIRED METARs :
  • 280500Z AUTO VRB02KT 8000 BKN019 M00/M00 Q1024
  • 280430Z AUTO VRB03KT 8000 FEW001 BKN020 M01/M01 Q1024
  • 280400Z AUTO 00000KT 9999 FEW001 OVC022 M00/M01 Q1024
  • 280330Z AUTO 00000KT 4000 0600 R26/P2000 BCFG FEW003 M00/M01 Q1023
  • 280300Z AUTO 00000KT 1900 BR NSC 00/M00 Q1024
  • 280230Z AUTO VRB02KT 4600 2200 BR NSC 01/01 Q1024
  • 280200Z AUTO VRB02KT 7000 NSC 00/00 Q1024
  • 280130Z AUTO VRB02KT 5000 1300 R26/P2000 BR NSC M01/M01 Q1023
  • 280100Z AUTO 00000KT CAVOK 00/M00 Q1023

Expired Forecast.



MET'MAP, your aeronautical weather chart ! - Copyright ORBIFLY December 2007 - Disclaimer

ORBIFLY MET'MAP TEAM :

Programming & Development : Alexandra Zaïnal
Original concept : Baudouin d'Aumeries
Technical & hardware support : Manuel Goepfert
Assistance : Marc-Olivier Méhu




SOURCES & CREDITS :

   NOAA